createdAt,value
2018-12-14T00:01:09.989Z,11.57
2018-12-14T00:03:38.020Z,10.20
2018-12-14T00:06:06.082Z,11.22
2018-12-14T00:08:34.126Z,11.63
2018-12-14T00:11:02.171Z,11.40
2018-12-14T00:13:30.168Z,10.53
2018-12-14T00:15:58.248Z,10.70
2018-12-14T00:18:26.280Z,11.65
2018-12-14T00:20:54.298Z,11.33
2018-12-14T00:23:22.320Z,10.75
2018-12-14T00:25:50.356Z,11.10
2018-12-14T00:28:18.386Z,10.72
2018-12-14T00:30:46.486Z,11.20
2018-12-14T00:33:14.495Z,10.72
2018-12-14T00:35:43.083Z,10.65
2018-12-14T00:38:11.101Z,11.10
2018-12-14T00:40:39.113Z,11.33
2018-12-14T00:43:07.157Z,10.43
2018-12-14T00:45:35.187Z,11.30
2018-12-14T00:48:03.258Z,10.15
2018-12-14T00:50:31.269Z,10.93
2018-12-14T00:52:59.282Z,10.10
2018-12-14T00:55:27.313Z,9.68
2018-12-14T00:57:55.357Z,10.25
2018-12-14T01:00:23.472Z,10.08
2018-12-14T01:02:51.478Z,10.68
2018-12-14T01:05:26.168Z,10.65
2018-12-14T01:07:54.290Z,10.10
2018-12-14T01:10:22.304Z,10.72
2018-12-14T01:12:50.326Z,10.63
2018-12-14T01:15:18.336Z,10.72
2018-12-14T01:17:46.368Z,10.85
2018-12-14T01:20:14.386Z,11.03
2018-12-14T01:22:42.508Z,10.82
2018-12-14T01:25:10.536Z,10.65
2018-12-14T01:27:38.620Z,10.50
2018-12-14T01:30:06.914Z,10.32
2018-12-14T01:32:34.924Z,12.03
2018-12-14T01:35:03.434Z,11.40
2018-12-14T01:37:31.448Z,11.90
2018-12-14T01:39:59.458Z,10.45
2018-12-14T01:42:27.490Z,11.15
2018-12-14T01:44:55.510Z,11.18
2018-12-14T01:47:23.574Z,11.18
2018-12-14T01:49:51.642Z,10.70
2018-12-14T01:52:20.572Z,10.95
2018-12-14T01:54:49.016Z,10.63
2018-12-14T01:57:17.525Z,10.55
2018-12-14T01:59:45.546Z,10.53
2018-12-14T02:02:14.176Z,10.98
2018-12-14T02:04:42.219Z,10.48
2018-12-14T02:07:10.282Z,10.13
2018-12-14T02:09:38.288Z,10.00
2018-12-14T02:12:11.310Z,9.95
2018-12-14T02:14:36.306Z,10.05
2018-12-14T02:17:04.335Z,9.25
2018-12-14T02:19:32.372Z,10.23
2018-12-14T02:22:00.418Z,10.43
2018-12-14T02:24:28.454Z,10.08
2018-12-14T02:26:56.574Z,10.60
2018-12-14T02:29:24.587Z,10.30
2018-12-14T02:31:52.734Z,11.00
2018-12-14T02:34:20.832Z,10.63
2018-12-14T02:36:48.884Z,10.30
2018-12-14T02:39:16.909Z,10.68
2018-12-14T02:41:44.970Z,10.38
2018-12-14T02:44:13.033Z,10.68
2018-12-14T02:46:41.055Z,10.50
2018-12-14T02:49:09.062Z,11.53
2018-12-14T02:51:37.099Z,10.32
2018-12-14T02:54:05.111Z,10.63
2018-12-14T02:56:33.144Z,10.38
2018-12-14T02:59:01.142Z,9.93
2018-12-14T03:01:29.190Z,9.48
2018-12-14T03:03:57.234Z,10.45
2018-12-14T03:06:25.255Z,10.82
2018-12-14T03:08:53.273Z,11.03
2018-12-14T03:11:21.289Z,11.15
2018-12-14T03:13:49.293Z,10.60
2018-12-14T03:16:17.307Z,10.90
2018-12-14T03:18:45.354Z,10.93
2018-12-14T03:21:13.370Z,10.60
2018-12-14T03:23:41.385Z,11.73
2018-12-14T03:26:09.636Z,10.35
2018-12-14T03:28:37.654Z,11.10
2018-12-14T03:31:05.662Z,10.98
2018-12-14T03:33:33.681Z,10.85
2018-12-14T03:36:01.728Z,10.45
2018-12-14T03:38:29.746Z,11.25
2018-12-14T03:40:57.792Z,10.60
2018-12-14T03:43:25.811Z,10.70
2018-12-14T03:46:00.326Z,10.53
2018-12-14T03:48:28.362Z,10.78
2018-12-14T03:50:56.382Z,11.10
2018-12-14T03:53:24.430Z,12.13
2018-12-14T03:55:52.458Z,10.58
2018-12-14T03:58:20.466Z,11.22
2018-12-14T04:00:48.580Z,11.83
2018-12-14T04:03:16.613Z,11.25
2018-12-14T04:05:44.657Z,11.15
2018-12-14T04:08:12.682Z,11.45
2018-12-14T04:10:40.722Z,10.68
2018-12-14T04:13:08.724Z,12.28
2018-12-14T04:15:36.735Z,10.98
2018-12-14T04:18:04.743Z,11.60
2018-12-14T04:20:32.749Z,10.65
2018-12-14T04:23:00.776Z,10.53
2018-12-14T04:25:28.801Z,10.95
2018-12-14T04:27:56.830Z,10.78
2018-12-14T04:30:24.855Z,10.88
2018-12-14T04:32:52.889Z,11.08
2018-12-14T04:35:21.095Z,11.38
2018-12-14T04:37:49.132Z,11.85
2018-12-14T04:40:17.130Z,11.50
2018-12-14T04:42:48.766Z,12.70
2018-12-14T04:45:15.206Z,11.57
2018-12-14T04:47:43.214Z,10.40
2018-12-14T04:50:11.210Z,11.73
2018-12-14T04:52:39.222Z,11.57
2018-12-14T04:55:07.387Z,11.48
2018-12-14T04:57:35.494Z,12.37
2018-12-14T05:00:04.330Z,11.08
2018-12-14T05:02:32.394Z,11.05
2018-12-14T05:05:00.407Z,11.28
2018-12-14T05:07:28.480Z,10.88
2018-12-14T05:09:56.584Z,11.48
2018-12-14T05:12:24.610Z,11.48
2018-12-14T05:14:52.840Z,12.63
2018-12-14T05:17:21.029Z,11.33
2018-12-14T05:19:49.095Z,12.13
2018-12-14T05:22:17.122Z,11.70
2018-12-14T05:24:45.135Z,11.12
2018-12-14T05:27:13.280Z,12.13
2018-12-14T05:29:41.536Z,12.20
2018-12-14T05:32:09.602Z,12.35
2018-12-14T05:34:37.712Z,11.93
2018-12-14T05:37:05.784Z,11.28
2018-12-14T05:39:33.908Z,11.03
2018-12-14T05:42:01.937Z,11.45
2018-12-14T05:44:29.989Z,11.10
2018-12-14T05:46:58.115Z,11.97
2018-12-14T05:49:26.168Z,12.15
2018-12-14T05:51:54.189Z,11.30
2018-12-14T05:54:22.210Z,11.20
2018-12-14T05:56:50.322Z,12.15
2018-12-14T05:59:18.344Z,12.03
2018-12-14T06:01:46.444Z,12.18
2018-12-14T06:04:14.587Z,12.00
2018-12-14T06:06:42.984Z,11.40
2018-12-14T06:09:11.274Z,11.78
2018-12-14T06:11:39.308Z,12.28
2018-12-14T06:14:07.322Z,11.73
2018-12-14T06:16:35.334Z,11.48
2018-12-14T06:19:03.360Z,11.60
2018-12-14T06:21:31.385Z,11.53
2018-12-14T06:23:59.438Z,11.70
2018-12-14T06:26:27.496Z,12.18
2018-12-14T06:28:55.613Z,11.83
2018-12-14T06:31:23.654Z,11.40
2018-12-14T06:33:51.714Z,12.33
2018-12-14T06:36:19.747Z,12.30
2018-12-14T06:38:47.780Z,12.25
2018-12-14T06:41:15.846Z,12.50
2018-12-14T06:43:43.884Z,13.03
2018-12-14T06:46:11.908Z,12.85
2018-12-14T06:48:39.930Z,11.90
2018-12-14T06:51:08.271Z,13.20
2018-12-14T06:53:36.318Z,13.08
2018-12-14T06:56:04.361Z,12.95
2018-12-14T06:58:32.464Z,12.58
2018-12-14T07:01:00.486Z,11.57
2018-12-14T07:03:28.526Z,12.18
2018-12-14T07:05:56.530Z,12.37
2018-12-14T07:08:24.552Z,12.60
2018-12-14T07:10:52.572Z,12.15
2018-12-14T07:13:23.632Z,12.55
2018-12-14T07:15:51.698Z,12.50
2018-12-14T07:18:19.740Z,12.53
2018-12-14T07:20:48.084Z,12.43
2018-12-14T07:23:16.130Z,13.35
2018-12-14T07:25:44.156Z,12.03
2018-12-14T07:28:12.234Z,12.43
2018-12-14T07:30:40.274Z,13.05
2018-12-14T07:33:08.379Z,12.20
2018-12-14T07:35:41.823Z,12.30
2018-12-14T07:38:06.457Z,12.63
2018-12-14T07:40:34.578Z,12.55
2018-12-14T07:43:02.572Z,13.25
2018-12-14T07:45:30.730Z,13.32
2018-12-14T07:47:58.754Z,13.15
2018-12-14T07:50:26.929Z,12.82
2018-12-14T07:52:58.290Z,12.90
2018-12-14T07:55:26.504Z,12.68
2018-12-14T07:57:54.526Z,12.03
2018-12-14T08:00:22.654Z,12.78
2018-12-14T08:02:50.649Z,13.15
2018-12-14T08:05:18.706Z,13.45
2018-12-14T08:07:46.740Z,12.82
2018-12-14T08:10:14.875Z,13.18
2018-12-14T08:12:43.013Z,13.03
2018-12-14T08:15:11.827Z,13.30
2018-12-14T08:17:39.868Z,12.73
2018-12-14T08:20:07.997Z,13.18
2018-12-14T08:22:36.027Z,13.62
2018-12-14T08:25:04.855Z,13.20
2018-12-14T08:27:32.879Z,13.80
2018-12-14T08:30:00.910Z,12.78
2018-12-14T08:32:28.913Z,12.33
2018-12-14T08:34:56.939Z,13.18
2018-12-14T08:37:25.015Z,13.28
2018-12-14T08:39:53.049Z,12.95
2018-12-14T08:42:21.063Z,12.82
2018-12-14T08:44:49.092Z,12.15
2018-12-14T08:47:17.131Z,12.25
2018-12-14T08:49:45.137Z,11.97
2018-12-14T08:52:13.185Z,11.88
2018-12-14T08:54:41.237Z,12.85
2018-12-14T08:57:09.367Z,12.70
2018-12-14T08:59:37.375Z,12.50
2018-12-14T09:02:05.509Z,12.88
2018-12-14T09:04:33.563Z,11.63
2018-12-14T09:07:01.591Z,12.40
2018-12-14T09:09:29.619Z,12.25
2018-12-14T09:11:57.643Z,12.37
2018-12-14T09:14:25.703Z,12.68
2018-12-14T09:16:53.755Z,12.53
2018-12-14T09:19:21.775Z,13.03
2018-12-14T09:21:49.823Z,12.07
2018-12-14T09:24:17.831Z,12.45
2018-12-14T09:26:45.851Z,12.75
2018-12-14T09:29:14.007Z,13.05
2018-12-14T09:31:42.055Z,13.05
2018-12-14T09:34:10.111Z,13.45
2018-12-14T09:36:38.120Z,13.05
2018-12-14T09:39:06.593Z,12.35
2018-12-14T09:41:34.633Z,12.40
2018-12-14T09:44:02.646Z,12.90
2018-12-14T09:46:36.886Z,13.08
2018-12-14T09:49:00.683Z,12.90
2018-12-14T09:51:28.692Z,12.33
2018-12-14T09:53:56.717Z,11.73
2018-12-14T09:56:24.734Z,12.68
2018-12-14T09:58:52.785Z,12.73
2018-12-14T10:01:20.802Z,12.20
2018-12-14T10:03:49.115Z,12.53
2018-12-14T10:06:17.158Z,12.25
2018-12-14T10:08:45.175Z,11.60
2018-12-14T10:11:13.413Z,12.33
2018-12-14T10:13:41.449Z,12.60
2018-12-14T10:16:09.471Z,12.85
2018-12-14T10:18:38.006Z,13.05
2018-12-14T10:21:06.051Z,12.82
2018-12-14T10:23:34.093Z,12.23
2018-12-14T10:26:02.131Z,12.35
2018-12-14T10:28:30.146Z,12.53
2018-12-14T10:30:58.162Z,12.35
2018-12-14T10:33:26.204Z,12.45
2018-12-14T10:35:54.229Z,13.18
2018-12-14T10:38:22.247Z,12.30
2018-12-14T10:40:50.291Z,12.00
2018-12-14T10:43:18.319Z,11.80
2018-12-14T10:45:46.642Z,11.95
2018-12-14T10:48:14.766Z,12.33
2018-12-14T10:50:42.819Z,12.88
2018-12-14T10:53:12.061Z,12.37
2018-12-14T10:55:40.607Z,12.63
2018-12-14T10:58:08.646Z,12.05
2018-12-14T11:00:42.326Z,13.40
2018-12-14T11:03:10.379Z,30.43
2018-12-14T11:05:38.379Z,28.55
2018-12-14T11:08:06.423Z,12.65
2018-12-14T11:10:34.557Z,12.37
2018-12-14T11:13:02.562Z,13.00
2018-12-14T11:15:30.582Z,12.78
2018-12-14T11:17:58.605Z,13.05
2018-12-14T11:20:26.630Z,13.22
2018-12-14T11:22:54.668Z,12.60
2018-12-14T11:25:22.693Z,16.65
2018-12-14T11:27:50.720Z,18.95
2018-12-14T11:30:18.731Z,13.32
2018-12-14T11:32:46.755Z,12.03
2018-12-14T11:35:14.867Z,12.47
2018-12-14T11:37:42.888Z,12.95
2018-12-14T11:40:10.923Z,12.47
2018-12-14T11:42:38.945Z,12.00
2018-12-14T11:45:07.892Z,13.38
2018-12-14T11:47:35.912Z,12.98
2018-12-14T11:50:04.529Z,13.83
2018-12-14T11:52:32.539Z,13.48
2018-12-14T11:55:00.697Z,12.98
2018-12-14T11:57:28.709Z,13.13
2018-12-14T11:59:56.754Z,13.80
2018-12-14T12:02:24.778Z,13.28
2018-12-14T12:04:52.797Z,12.63
2018-12-14T12:07:20.837Z,13.28
2018-12-14T12:09:48.896Z,13.95
2018-12-14T12:12:16.903Z,12.88
2018-12-14T12:14:44.927Z,12.80
2018-12-14T12:17:12.926Z,13.45
2018-12-14T12:19:40.952Z,13.25
2018-12-14T12:22:08.977Z,13.08
2018-12-14T12:24:37.031Z,12.82
2018-12-14T12:27:05.071Z,13.20
2018-12-14T12:29:33.080Z,13.35
2018-12-14T12:32:01.121Z,12.58
2018-12-14T12:34:29.161Z,13.53
2018-12-14T12:36:57.206Z,13.45
2018-12-14T12:39:25.227Z,13.10
2018-12-14T12:41:53.287Z,12.73
2018-12-14T12:44:21.312Z,13.50
2018-12-14T12:46:49.363Z,13.08
2018-12-14T12:49:17.411Z,13.45
2018-12-14T12:51:45.491Z,12.53
2018-12-14T12:54:13.499Z,13.35
2018-12-14T12:56:41.523Z,12.82
2018-12-14T12:59:09.565Z,12.35
2018-12-14T13:01:37.610Z,12.95
2018-12-14T13:04:05.663Z,13.20
2018-12-14T13:06:33.680Z,12.55
2018-12-14T13:09:01.700Z,14.03
2018-12-14T13:11:29.810Z,12.20
2018-12-14T13:13:57.922Z,13.80
2018-12-14T13:16:25.951Z,13.75
2018-12-14T13:18:53.973Z,13.08
2018-12-14T13:21:21.984Z,26.25
2018-12-14T13:23:50.001Z,13.50
2018-12-14T13:26:18.083Z,13.08
2018-12-14T13:28:46.124Z,13.83
2018-12-14T13:31:14.147Z,13.90
2018-12-14T13:33:42.225Z,13.32
2018-12-14T13:36:10.260Z,13.70
2018-12-14T13:38:38.291Z,13.80
2018-12-14T13:41:06.342Z,13.40
2018-12-14T13:43:34.398Z,13.28
2018-12-14T13:46:02.442Z,12.90
2018-12-14T13:48:30.496Z,13.80
2018-12-14T13:50:58.510Z,13.68
2018-12-14T13:53:26.549Z,13.05
2018-12-14T13:55:54.557Z,13.50
2018-12-14T13:58:22.605Z,12.90
2018-12-14T14:00:50.630Z,13.15
2018-12-14T14:03:18.685Z,13.60
2018-12-14T14:05:46.723Z,13.45
2018-12-14T14:08:14.741Z,14.10
2018-12-14T14:10:42.780Z,13.78
2018-12-14T14:13:10.818Z,14.18
2018-12-14T14:15:38.860Z,14.05
2018-12-14T14:18:06.899Z,13.30
2018-12-14T14:20:34.902Z,14.13
2018-12-14T14:23:03.031Z,13.35
2018-12-14T14:25:31.079Z,13.62
2018-12-14T14:27:59.111Z,13.58
2018-12-14T14:30:27.145Z,13.40
2018-12-14T14:32:55.164Z,14.45
2018-12-14T14:35:23.204Z,13.88
2018-12-14T14:37:57.300Z,14.43
2018-12-14T14:40:21.252Z,13.72
2018-12-14T14:42:49.321Z,13.53
2018-12-14T14:45:17.350Z,14.28
2018-12-14T14:47:45.378Z,13.80
2018-12-14T14:50:13.437Z,14.38
2018-12-14T14:52:41.457Z,14.50
2018-12-14T14:55:09.483Z,14.55
2018-12-14T14:57:37.841Z,14.40
2018-12-14T15:00:06.341Z,13.60
2018-12-14T15:02:34.376Z,13.80
2018-12-14T15:05:02.409Z,13.68
2018-12-14T15:07:30.442Z,14.23
2018-12-14T15:09:58.463Z,14.95
2018-12-14T15:12:26.491Z,13.95
2018-12-14T15:14:54.513Z,15.05
2018-12-14T15:17:22.548Z,13.72
2018-12-14T15:19:50.595Z,13.53
2018-12-14T15:22:18.659Z,13.70
2018-12-14T15:24:46.703Z,14.20
2018-12-14T15:27:14.725Z,14.58
2018-12-14T15:29:42.742Z,13.90
2018-12-14T15:32:10.849Z,13.25
2018-12-14T15:34:38.882Z,14.10
2018-12-14T15:37:06.921Z,14.63
2018-12-14T15:39:34.983Z,14.50
2018-12-14T15:42:03.255Z,14.03
2018-12-14T15:44:31.294Z,14.00
2018-12-14T15:46:59.422Z,14.47
2018-12-14T15:49:27.457Z,13.60
2018-12-14T15:51:55.485Z,13.53
2018-12-14T15:54:23.531Z,13.13
2018-12-14T15:56:51.575Z,13.75
2018-12-14T15:59:21.042Z,13.95
2018-12-14T16:01:49.260Z,13.00
2018-12-14T16:04:17.324Z,13.08
2018-12-14T16:06:45.338Z,14.20
2018-12-14T16:09:13.363Z,13.32
2018-12-14T16:11:41.385Z,13.62
2018-12-14T16:14:09.424Z,13.85
2018-12-14T16:16:37.476Z,15.13
2018-12-14T16:19:05.494Z,12.45
2018-12-14T16:21:33.707Z,13.03
2018-12-14T16:24:01.879Z,14.90
2018-12-14T16:26:30.012Z,13.15
2018-12-14T16:28:58.050Z,13.03
2018-12-14T16:31:26.070Z,13.53
2018-12-14T16:33:54.212Z,13.48
2018-12-14T16:36:23.998Z,14.23
2018-12-14T16:38:52.518Z,13.48
2018-12-14T16:41:20.945Z,14.03
2018-12-14T16:43:49.125Z,14.15
2018-12-14T16:46:17.406Z,13.20
2018-12-14T16:48:45.821Z,14.55
2018-12-14T16:51:14.298Z,13.98
2018-12-14T16:53:47.853Z,13.98
2018-12-14T16:56:15.922Z,17.40
2018-12-14T16:58:43.954Z,14.68
2018-12-14T17:01:12.216Z,14.00
2018-12-14T17:03:40.758Z,13.60
2018-12-14T17:06:08.849Z,14.23
2018-12-14T17:08:37.040Z,13.20
2018-12-14T17:11:05.508Z,14.30
2018-12-14T17:13:33.641Z,14.68
2018-12-14T17:16:01.702Z,14.03
2018-12-14T17:18:29.762Z,13.60
2018-12-14T17:20:57.895Z,13.32
2018-12-14T17:23:25.952Z,13.65
2018-12-14T17:25:54.001Z,14.00
2018-12-14T17:28:22.033Z,14.07
2018-12-14T17:30:50.091Z,13.75
2018-12-14T17:33:18.133Z,13.28
2018-12-14T17:35:46.163Z,14.15
2018-12-14T17:38:14.409Z,13.80
2018-12-14T17:40:42.662Z,15.25
2018-12-14T17:43:10.813Z,13.90
2018-12-14T17:45:39.937Z,14.07
2018-12-14T17:48:08.219Z,13.55
2018-12-14T17:50:36.231Z,13.45
2018-12-14T17:53:04.297Z,14.05
2018-12-14T17:55:32.344Z,13.95
2018-12-14T17:58:00.377Z,13.68
2018-12-14T18:00:28.671Z,13.90
2018-12-14T18:02:56.723Z,13.78
2018-12-14T18:05:24.795Z,13.28
2018-12-14T18:07:52.884Z,14.13
2018-12-14T18:10:21.516Z,13.50
2018-12-14T18:12:49.569Z,13.62
2018-12-14T18:15:17.603Z,13.38
2018-12-14T18:17:45.651Z,13.95
2018-12-14T18:20:13.684Z,14.13
2018-12-14T18:22:41.981Z,14.20
2018-12-14T18:25:10.428Z,13.43
2018-12-14T18:27:38.601Z,12.53
2018-12-14T18:30:07.414Z,13.43
2018-12-14T18:32:35.766Z,12.63
2018-12-14T18:35:03.923Z,13.30
2018-12-14T18:37:31.991Z,12.23
2018-12-14T18:40:00.049Z,14.30
2018-12-14T18:42:28.894Z,12.98
2018-12-14T18:44:57.017Z,12.43
2018-12-14T18:47:25.111Z,12.93
2018-12-14T18:49:53.197Z,11.63
2018-12-14T18:52:21.287Z,12.73
2018-12-14T18:54:49.324Z,12.37
2018-12-14T18:57:17.423Z,12.90
2018-12-14T18:59:45.557Z,13.65
2018-12-14T19:02:13.693Z,13.10
2018-12-14T19:04:41.773Z,12.40
2018-12-14T19:07:10.065Z,13.22
2018-12-14T19:09:38.454Z,13.25
2018-12-14T19:12:06.518Z,12.90
2018-12-14T19:14:34.647Z,13.28
2018-12-14T19:17:02.735Z,12.37
2018-12-14T19:19:30.890Z,13.30
2018-12-14T19:22:00.120Z,14.23
2018-12-14T19:24:35.288Z,13.70
2018-12-14T19:27:04.445Z,13.03
2018-12-14T19:32:07.132Z,14.00
2018-12-14T19:34:35.274Z,13.65
2018-12-14T19:37:03.418Z,14.47
2018-12-14T19:39:31.520Z,13.48
2018-12-14T19:41:59.652Z,13.38
2018-12-14T19:44:28.053Z,14.18
2018-12-14T19:46:56.163Z,14.55
2018-12-14T19:49:24.269Z,13.45
2018-12-14T19:51:52.835Z,12.95
2018-12-14T19:54:20.938Z,13.22
2018-12-14T19:56:49.269Z,14.65
2018-12-14T19:59:17.371Z,13.60
2018-12-14T20:01:45.458Z,13.43
2018-12-14T20:04:13.582Z,13.40
2018-12-14T20:06:41.682Z,13.18
2018-12-14T20:09:09.793Z,12.10
2018-12-14T20:11:37.923Z,12.53
2018-12-14T20:14:06.011Z,13.00
2018-12-14T20:16:34.107Z,13.30
2018-12-14T20:19:02.223Z,22.00
2018-12-14T20:21:30.316Z,13.55
2018-12-14T20:23:58.407Z,11.65
2018-12-14T20:26:26.525Z,11.43
2018-12-14T20:28:54.691Z,11.38
2018-12-14T20:31:22.775Z,12.10
2018-12-14T20:33:53.773Z,11.35
2018-12-14T20:36:21.873Z,11.68
2018-12-14T20:38:49.959Z,11.80
2018-12-14T20:41:18.085Z,12.30
2018-12-14T20:43:46.199Z,12.37
2018-12-14T20:46:19.275Z,12.78
2018-12-14T20:48:45.441Z,11.70
2018-12-14T20:51:13.571Z,12.68
2018-12-14T20:53:41.755Z,11.80
2018-12-14T20:56:10.843Z,11.53
2018-12-14T20:58:38.960Z,11.05
2018-12-14T21:01:07.081Z,11.83
2018-12-14T21:03:35.229Z,11.45
2018-12-14T21:06:03.581Z,11.83
2018-12-14T21:08:31.723Z,12.15
2018-12-14T21:11:00.933Z,10.65
2018-12-14T21:13:29.730Z,11.88
2018-12-14T21:15:57.867Z,10.78
2018-12-14T21:18:26.927Z,11.28
2018-12-14T21:20:55.116Z,11.48
2018-12-14T21:23:23.434Z,12.40
2018-12-14T21:25:51.620Z,11.83
2018-12-14T21:28:20.055Z,11.78
2018-12-14T21:30:48.205Z,11.45
2018-12-14T21:33:16.694Z,11.90
2018-12-14T21:35:44.814Z,12.70
2018-12-14T21:38:12.979Z,12.18
2018-12-14T21:40:41.994Z,12.40
2018-12-14T21:43:10.078Z,11.78
2018-12-14T21:45:38.228Z,12.28
2018-12-14T21:48:06.409Z,12.10
2018-12-14T21:50:34.900Z,11.90
2018-12-14T21:53:02.987Z,12.80
2018-12-14T21:55:31.137Z,12.30
2018-12-14T21:58:00.192Z,12.03
2018-12-14T22:00:29.211Z,12.10
2018-12-14T22:02:57.285Z,12.50
2018-12-14T22:05:25.503Z,11.48
2018-12-14T22:07:53.589Z,12.93
2018-12-14T22:10:21.660Z,11.57
2018-12-14T22:12:49.763Z,12.73
2018-12-14T22:15:17.855Z,12.65
2018-12-14T22:17:45.907Z,12.07
2018-12-14T22:20:14.003Z,11.50
2018-12-14T22:22:42.110Z,11.93
2018-12-14T22:25:10.179Z,11.63
2018-12-14T22:27:38.239Z,12.18
2018-12-14T22:30:07.317Z,12.00
2018-12-14T22:32:35.397Z,12.07
2018-12-14T22:35:04.145Z,12.33
2018-12-14T22:37:32.239Z,11.55
2018-12-14T22:40:00.416Z,12.25
2018-12-14T22:42:28.510Z,11.97
2018-12-14T22:44:56.577Z,12.73
2018-12-14T22:47:24.713Z,13.30
2018-12-14T22:49:52.757Z,12.63
2018-12-14T22:52:20.828Z,12.58
2018-12-14T22:54:48.854Z,12.82
2018-12-14T22:57:16.981Z,12.20
2018-12-14T22:59:45.005Z,12.30
2018-12-14T23:02:13.164Z,13.38
2018-12-14T23:04:41.202Z,12.43
2018-12-14T23:07:09.257Z,13.40
2018-12-14T23:09:37.323Z,13.65
2018-12-14T23:12:05.354Z,13.48
2018-12-14T23:14:33.378Z,13.55
2018-12-14T23:17:01.426Z,13.22
2018-12-14T23:19:29.457Z,13.03
2018-12-14T23:21:57.499Z,12.65
2018-12-14T23:24:25.523Z,12.73
2018-12-14T23:26:53.547Z,12.43
2018-12-14T23:29:21.607Z,12.63
2018-12-14T23:31:49.687Z,12.60
2018-12-14T23:34:17.785Z,12.05
2018-12-14T23:36:45.805Z,12.45
2018-12-14T23:39:15.353Z,12.05
2018-12-14T23:41:43.377Z,12.45
2018-12-14T23:44:11.431Z,12.85
2018-12-14T23:46:39.435Z,12.10
2018-12-14T23:49:07.457Z,11.25
2018-12-14T23:51:35.473Z,12.25
2018-12-14T23:54:03.536Z,12.23
2018-12-14T23:56:31.558Z,11.65
2018-12-14T23:58:59.580Z,11.90
